PWSweather.com
Personal Weather Stations
Station Observations
CALONGE
CalongeES 17251

CalongeES 17251

Lat: 41.85972222, Lon: 3.077777778

Elevation: 16

Station Type: Oregon WMR928N

www.calonge-meteoweb.com

High Low Average
Temperature 99.3°F37.4°C 72.9°F22.7°C 83.0°F28.3°C
Dew Point 67.8°F19.9°C 45.7°F7.6°C 55.4°F13.0°C
Winds 12.6 mph 20.3 kmh Calm Calm 4.0 mph SE6.4 kmh SE
Wind Gusts 17.3 mph27.8 kmh -- 7.0 mph11.3 kmh
Humidity 69% 19% 41%
Pressure 29.98 in1015.2 mb 29.86 in1011.2 mb -
Precipitation 0.00 in0.0 mm - -
Hour Temp Dew Point Humidity Winds Wind Gusts Pressure Precip Precip Rate Daily Precip Total
12:00 AM 72.9°F22.7°C 49.7°F9.8°C 44% Calm Calm -- 29.89 in1012.2 mb 0.00 in0.0 mm 0.00 in0.0 mm 0.00 in0.0 mm
12:15 AM 72.9°F22.7°C 49.7°F9.8°C 44% Calm Calm -- 29.89 in1012.2 mb 0.00 in0.0 mm 0.00 in0.0 mm 0.00 in0.0 mm
12:30 AM 73.4°F23.0°C 48.9°F9.4°C 42% Calm Calm -- 29.89 in1012.2 mb 0.00 in0.0 mm 0.00 in0.0 mm 0.00 in0.0 mm
12:45 AM 74.8°F23.8°C 47.5°F8.6°C 38% Calm Calm -- 29.89 in1012.2 mb 0.00 in0.0 mm 0.00 in0.0 mm 0.00 in0.0 mm
01:00 AM 75.0°F23.9°C 47.7°F8.7°C 38% Calm Calm -- 29.89 in1012.2 mb 0.00 in0.0 mm 0.00 in0.0 mm 0.00 in0.0 mm
01:15 AM 75.0°F23.9°C 47.7°F8.7°C 38% 5.9 mph W9.5 kmh W 7.0 mph11.3 kmh 29.89 in1012.2 mb 0.00 in0.0 mm 0.00 in0.0 mm 0.00 in0.0 mm
01:30 AM 75.0°F23.9°C 47.0°F8.3°C 37% Calm Calm -- 29.89 in1012.2 mb 0.00 in0.0 mm 0.00 in0.0 mm 0.00 in0.0 mm
01:45 AM 74.3°F23.5°C 48.4°F9.1°C 40% Calm Calm -- 29.89 in1012.2 mb 0.00 in0.0 mm 0.00 in0.0 mm 0.00 in0.0 mm
02:00 AM 73.8°F23.2°C 48.6°F9.2°C 41% Calm Calm -- 29.89 in1012.2 mb 0.00 in0.0 mm 0.00 in0.0 mm 0.00 in0.0 mm
02:15 AM 73.8°F23.2°C 48.6°F9.2°C 41% 4.1 mph W6.6 kmh W 6.4 mph10.3 kmh 29.89 in1012.2 mb 0.00 in0.0 mm 0.00 in0.0 mm 0.00 in0.0 mm
02:30 AM 73.8°F23.2°C 47.9°F8.8°C 40% 4.1 mph WNW6.6 kmh WNW 6.4 mph10.3 kmh 29.89 in1012.2 mb 0.00 in0.0 mm 0.00 in0.0 mm 0.00 in0.0 mm
02:45 AM 73.8°F23.2°C 47.9°F8.8°C 40% 5.3 mph W8.5 kmh W 8.2 mph13.2 kmh 29.89 in1012.2 mb 0.00 in0.0 mm 0.00 in0.0 mm 0.00 in0.0 mm
03:00 AM 73.0°F22.8°C 48.6°F9.2°C 42% Calm Calm 5.3 mph8.5 kmh 29.89 in1012.2 mb 0.00 in0.0 mm 0.00 in0.0 mm 0.00 in0.0 mm
03:15 AM 72.9°F22.7°C 47.8°F8.8°C 41% 4.7 mph W7.6 kmh W 6.4 mph10.3 kmh 29.89 in1012.2 mb 0.00 in0.0 mm 0.00 in0.0 mm 0.00 in0.0 mm
03:30 AM 73.2°F22.9°C 47.4°F8.6°C 40% 5.9 mph WNW9.5 kmh WNW 7.6 mph12.2 kmh 29.86 in1011.2 mb 0.00 in0.0 mm 0.00 in0.0 mm 0.00 in0.0 mm
03:45 AM 74.1°F23.4°C 46.9°F8.3°C 38% 5.9 mph WNW9.5 kmh WNW 8.2 mph13.2 kmh 29.86 in1011.2 mb 0.00 in0.0 mm 0.00 in0.0 mm 0.00 in0.0 mm
04:00 AM 75.0°F23.9°C 46.2°F7.9°C 36% Calm Calm 7.0 mph11.3 kmh 29.86 in1011.2 mb 0.00 in0.0 mm 0.00 in0.0 mm 0.00 in0.0 mm
04:15 AM 75.2°F24.0°C 45.7°F7.6°C 35% 5.9 mph WNW9.5 kmh WNW 7.6 mph12.2 kmh 29.86 in1011.2 mb 0.00 in0.0 mm 0.00 in0.0 mm 0.00 in0.0 mm
04:30 AM 75.0°F23.9°C 46.2°F7.9°C 36% 4.7 mph W7.6 kmh W 6.4 mph10.3 kmh 29.86 in1011.2 mb 0.00 in0.0 mm 0.00 in0.0 mm 0.00 in0.0 mm
04:45 AM 74.5°F23.6°C 46.5°F8.1°C 37% 4.1 mph WNW6.6 kmh WNW 6.4 mph10.3 kmh 29.86 in1011.2 mb 0.00 in0.0 mm 0.00 in0.0 mm 0.00 in0.0 mm
05:00 AM 73.9°F23.3°C 46.0°F7.8°C 37% 4.7 mph WNW7.6 kmh WNW 6.4 mph10.3 kmh 29.86 in1011.2 mb 0.00 in0.0 mm 0.00 in0.0 mm 0.00 in0.0 mm
05:15 AM 73.8°F23.2°C 45.9°F7.7°C 37% 5.3 mph WNW8.5 kmh WNW 7.0 mph11.3 kmh 29.86 in1011.2 mb 0.00 in0.0 mm 0.00 in0.0 mm 0.00 in0.0 mm
05:30 AM 74.1°F23.4°C 46.2°F7.9°C 37% 5.9 mph WNW9.5 kmh WNW 7.6 mph12.2 kmh 29.86 in1011.2 mb 0.00 in0.0 mm 0.00 in0.0 mm 0.00 in0.0 mm
05:45 AM 74.7°F23.7°C 45.9°F7.7°C 36% 5.3 mph WNW8.5 kmh WNW 8.2 mph13.2 kmh 29.86 in1011.2 mb 0.00 in0.0 mm 0.00 in0.0 mm 0.00 in0.0 mm
06:00 AM 74.8°F23.8°C 46.8°F8.2°C 37% 4.7 mph WNW7.6 kmh WNW 7.0 mph11.3 kmh 29.89 in1012.2 mb 0.00 in0.0 mm 0.00 in0.0 mm 0.00 in0.0 mm
06:15 AM 75.0°F23.9°C 47.0°F8.3°C 37% 3.5 mph WNW5.6 kmh WNW 7.6 mph12.2 kmh 29.89 in1012.2 mb 0.00 in0.0 mm 0.00 in0.0 mm 0.00 in0.0 mm
06:30 AM 75.2°F24.0°C 47.1°F8.4°C 37% Calm Calm 5.3 mph8.5 kmh 29.89 in1012.2 mb 0.00 in0.0 mm 0.00 in0.0 mm 0.00 in0.0 mm
06:45 AM 75.7°F24.3°C 49.0°F9.4°C 39% Calm Calm -- 29.89 in1012.2 mb 0.00 in0.0 mm 0.00 in0.0 mm 0.00 in0.0 mm
07:00 AM 76.5°F24.7°C 49.7°F9.8°C 39% Calm Calm -- 29.89 in1012.2 mb 0.00 in0.0 mm 0.00 in0.0 mm 0.00 in0.0 mm
07:15 AM 78.3°F25.7°C 49.8°F9.9°C 37% Calm Calm -- 29.89 in1012.2 mb 0.00 in0.0 mm 0.00 in0.0 mm 0.00 in0.0 mm
07:30 AM 80.2°F26.8°C 50.1°F10.1°C 35% Calm Calm -- 29.89 in1012.2 mb 0.00 in0.0 mm 0.00 in0.0 mm 0.00 in0.0 mm
07:45 AM 82.2°F27.9°C 51.1°F10.6°C 34% Calm Calm -- 29.92 in1013.2 mb 0.00 in0.0 mm 0.00 in0.0 mm 0.00 in0.0 mm
08:00 AM 83.8°F28.8°C 50.8°F10.4°C 32% 2.9 mph SE4.7 kmh SE 5.3 mph8.5 kmh 29.92 in1013.2 mb 0.00 in0.0 mm 0.00 in0.0 mm 0.00 in0.0 mm
08:15 AM 85.5°F29.7°C 51.4°F10.8°C 31% Calm Calm 4.7 mph7.6 kmh 29.92 in1013.2 mb 0.00 in0.0 mm 0.00 in0.0 mm 0.00 in0.0 mm
08:30 AM 87.3°F30.7°C 51.1°F10.6°C 29% Calm Calm -- 29.92 in1013.2 mb 0.00 in0.0 mm 0.00 in0.0 mm 0.00 in0.0 mm
08:45 AM 88.9°F31.6°C 51.6°F10.9°C 28% 7.0 mph E11.3 kmh E 8.2 mph13.2 kmh 29.92 in1013.2 mb 0.00 in0.0 mm 0.00 in0.0 mm 0.00 in0.0 mm
09:00 AM 90.5°F32.5°C 53.9°F12.2°C 29% 7.6 mph ENE12.2 kmh ENE 13.2 mph21.2 kmh 29.92 in1013.2 mb 0.00 in0.0 mm 0.00 in0.0 mm 0.00 in0.0 mm
09:15 AM 91.6°F33.1°C 53.9°F12.2°C 28% 6.4 mph NE10.3 kmh NE 10.8 mph17.4 kmh 29.92 in1013.2 mb 0.00 in0.0 mm 0.00 in0.0 mm 0.00 in0.0 mm
09:30 AM 92.5°F33.6°C 53.6°F12.0°C 27% 8.2 mph ENE13.2 kmh ENE 13.8 mph22.2 kmh 29.92 in1013.2 mb 0.00 in0.0 mm 0.00 in0.0 mm 0.00 in0.0 mm
09:45 AM 93.4°F34.1°C 54.4°F12.4°C 27% 8.8 mph NE14.2 kmh NE 13.8 mph22.2 kmh 29.92 in1013.2 mb 0.00 in0.0 mm 0.00 in0.0 mm 0.00 in0.0 mm
10:00 AM 94.3°F34.6°C 53.1°F11.7°C 25% 8.8 mph ENE14.2 kmh ENE 14.9 mph24.0 kmh 29.92 in1013.2 mb 0.00 in0.0 mm 0.00 in0.0 mm 0.00 in0.0 mm
10:15 AM 94.6°F34.8°C 53.4°F11.9°C 25% 4.1 mph NE6.6 kmh NE 13.2 mph21.2 kmh 29.92 in1013.2 mb 0.00 in0.0 mm 0.00 in0.0 mm 0.00 in0.0 mm
10:30 AM 95.4°F35.2°C 51.7°F10.9°C 23% 4.1 mph N6.6 kmh N 8.2 mph13.2 kmh 29.92 in1013.2 mb 0.00 in0.0 mm 0.00 in0.0 mm 0.00 in0.0 mm
10:45 AM 95.9°F35.5°C 53.3°F11.8°C 24% Calm Calm 8.2 mph13.2 kmh 29.92 in1013.2 mb 0.00 in0.0 mm 0.00 in0.0 mm 0.00 in0.0 mm
11:00 AM 97.0°F36.1°C 51.8°F11.0°C 22% 7.0 mph ENE11.3 kmh ENE 13.2 mph21.2 kmh 29.92 in1013.2 mb 0.00 in0.0 mm 0.00 in0.0 mm 0.00 in0.0 mm
11:15 AM 97.2°F36.2°C 49.4°F9.7°C 20% 6.4 mph NE10.3 kmh NE 14.4 mph23.2 kmh 29.92 in1013.2 mb 0.00 in0.0 mm 0.00 in0.0 mm 0.00 in0.0 mm
11:30 AM 97.0°F36.1°C 49.3°F9.6°C 20% 6.4 mph NE10.3 kmh NE 13.2 mph21.2 kmh 29.92 in1013.2 mb 0.00 in0.0 mm 0.00 in0.0 mm 0.00 in0.0 mm
11:45 AM 97.5°F36.4°C 51.0°F10.6°C 21% 6.4 mph ENE10.3 kmh ENE 13.2 mph21.2 kmh 29.92 in1013.2 mb 0.00 in0.0 mm 0.00 in0.0 mm 0.00 in0.0 mm
12:00 PM 98.2°F36.8°C 50.3°F10.2°C 20% 7.0 mph ENE11.3 kmh ENE 13.8 mph22.2 kmh 29.92 in1013.2 mb 0.00 in0.0 mm 0.00 in0.0 mm 0.00 in0.0 mm
12:15 PM 98.8°F37.1°C 49.4°F9.7°C 19% 5.9 mph NE9.5 kmh NE 14.4 mph23.2 kmh 29.92 in1013.2 mb 0.00 in0.0 mm 0.00 in0.0 mm 0.00 in0.0 mm
12:30 PM 98.6°F37.0°C 50.6°F10.3°C 20% 10.0 mph ENE16.1 kmh ENE 16.7 mph26.9 kmh 29.92 in1013.2 mb 0.00 in0.0 mm 0.00 in0.0 mm 0.00 in0.0 mm
12:45 PM 98.4°F36.9°C 50.4°F10.2°C 20% 7.6 mph ENE12.2 kmh ENE 14.9 mph24.0 kmh 29.92 in1013.2 mb 0.00 in0.0 mm 0.00 in0.0 mm 0.00 in0.0 mm
01:00 PM 99.3°F37.4°C 49.8°F9.9°C 19% 8.2 mph E13.2 kmh E 11.4 mph18.3 kmh 29.92 in1013.2 mb 0.00 in0.0 mm 0.00 in0.0 mm 0.00 in0.0 mm
01:15 PM 99.0°F37.2°C 52.2°F11.2°C 21% 10.5 mph E16.9 kmh E 16.1 mph25.9 kmh 29.92 in1013.2 mb 0.00 in0.0 mm 0.00 in0.0 mm 0.00 in0.0 mm
01:30 PM 98.1°F36.7°C 56.2°F13.4°C 25% 10.0 mph SE16.1 kmh SE 15.5 mph24.9 kmh 29.92 in1013.2 mb 0.00 in0.0 mm 0.00 in0.0 mm 0.00 in0.0 mm
01:45 PM 97.9°F36.6°C 58.2°F14.6°C 27% 7.0 mph SE11.3 kmh SE 13.2 mph21.2 kmh 29.92 in1013.2 mb 0.00 in0.0 mm 0.00 in0.0 mm 0.00 in0.0 mm
02:00 PM 95.4°F35.2°C 58.1°F14.5°C 29% 7.0 mph S11.3 kmh S 13.8 mph22.2 kmh 29.92 in1013.2 mb 0.00 in0.0 mm 0.00 in0.0 mm 0.00 in0.0 mm
02:15 PM 93.2°F34.0°C 59.0°F15.0°C 32% 7.0 mph SSE11.3 kmh SSE 14.4 mph23.2 kmh 29.92 in1013.2 mb 0.00 in0.0 mm 0.00 in0.0 mm 0.00 in0.0 mm
02:30 PM 92.7°F33.7°C 58.5°F14.7°C 32% 11.4 mph SE18.3 kmh SE 14.4 mph23.2 kmh 29.92 in1013.2 mb 0.00 in0.0 mm 0.00 in0.0 mm 0.00 in0.0 mm
02:45 PM 92.7°F33.7°C 59.4°F15.2°C 33% 8.2 mph SE13.2 kmh SE 14.4 mph23.2 kmh 29.92 in1013.2 mb 0.00 in0.0 mm 0.00 in0.0 mm 0.00 in0.0 mm
03:00 PM 91.6°F33.1°C 61.6°F16.4°C 37% 10.5 mph SE16.9 kmh SE 14.4 mph23.2 kmh 29.92 in1013.2 mb 0.00 in0.0 mm 0.00 in0.0 mm 0.00 in0.0 mm
03:15 PM 89.8°F32.1°C 61.5°F16.4°C 39% 12.6 mph SE20.3 kmh SE 14.9 mph24.0 kmh 29.92 in1013.2 mb 0.00 in0.0 mm 0.00 in0.0 mm 0.00 in0.0 mm
03:30 PM 88.2°F31.2°C 62.8°F17.1°C 43% 10.5 mph SE16.9 kmh SE 17.3 mph27.8 kmh 29.92 in1013.2 mb 0.00 in0.0 mm 0.00 in0.0 mm 0.00 in0.0 mm
03:45 PM 86.2°F30.1°C 64.8°F18.2°C 49% 8.8 mph SE14.2 kmh SE 13.8 mph22.2 kmh 29.92 in1013.2 mb 0.00 in0.0 mm 0.00 in0.0 mm 0.00 in0.0 mm
04:00 PM 85.5°F29.7°C 65.8°F18.8°C 52% 11.4 mph SE18.3 kmh SE 14.4 mph23.2 kmh 29.92 in1013.2 mb 0.00 in0.0 mm 0.00 in0.0 mm 0.00 in0.0 mm
04:15 PM 84.6°F29.2°C 66.6°F19.2°C 55% 7.6 mph SE12.2 kmh SE 10.8 mph17.4 kmh 29.95 in1014.2 mb 0.00 in0.0 mm 0.00 in0.0 mm 0.00 in0.0 mm
04:30 PM 84.4°F29.1°C 67.5°F19.7°C 57% 7.6 mph SE12.2 kmh SE 12.0 mph19.3 kmh 29.95 in1014.2 mb 0.00 in0.0 mm 0.00 in0.0 mm 0.00 in0.0 mm
04:45 PM 84.2°F29.0°C 67.3°F19.6°C 57% 5.9 mph SE9.5 kmh SE 11.4 mph18.3 kmh 29.92 in1013.2 mb 0.00 in0.0 mm 0.00 in0.0 mm 0.00 in0.0 mm
05:00 PM 84.2°F29.0°C 66.8°F19.3°C 56% 6.4 mph ESE10.3 kmh ESE 11.4 mph18.3 kmh 29.92 in1013.2 mb 0.00 in0.0 mm 0.00 in0.0 mm 0.00 in0.0 mm
05:15 PM 84.0°F28.9°C 66.6°F19.2°C 56% 4.7 mph SSE7.6 kmh SSE 8.2 mph13.2 kmh 29.92 in1013.2 mb 0.00 in0.0 mm 0.00 in0.0 mm 0.00 in0.0 mm
05:30 PM 84.0°F28.9°C 67.1°F19.5°C 57% 7.6 mph ESE12.2 kmh ESE 10.0 mph16.1 kmh 29.92 in1013.2 mb 0.00 in0.0 mm 0.00 in0.0 mm 0.00 in0.0 mm
05:45 PM 83.5°F28.6°C 67.1°F19.5°C 58% 4.1 mph SE6.6 kmh SE 8.2 mph13.2 kmh 29.92 in1013.2 mb 0.00 in0.0 mm 0.00 in0.0 mm 0.00 in0.0 mm
06:00 PM 83.1°F28.4°C 67.3°F19.6°C 59% 5.9 mph SE9.5 kmh SE 8.2 mph13.2 kmh 29.92 in1013.2 mb 0.00 in0.0 mm 0.00 in0.0 mm 0.00 in0.0 mm
06:15 PM 82.8°F28.2°C 67.5°F19.7°C 60% 4.1 mph SE6.6 kmh SE 8.2 mph13.2 kmh 29.92 in1013.2 mb 0.00 in0.0 mm 0.00 in0.0 mm 0.00 in0.0 mm
06:30 PM 82.4°F28.0°C 66.6°F19.2°C 59% 3.5 mph ESE5.6 kmh ESE 6.4 mph10.3 kmh 29.92 in1013.2 mb 0.00 in0.0 mm 0.00 in0.0 mm 0.00 in0.0 mm
06:45 PM 82.0°F27.8°C 67.3°F19.6°C 61% Calm Calm -- 29.92 in1013.2 mb 0.00 in0.0 mm 0.00 in0.0 mm 0.00 in0.0 mm
07:00 PM 81.5°F27.5°C 67.2°F19.6°C 62% Calm Calm -- 29.92 in1013.2 mb 0.00 in0.0 mm 0.00 in0.0 mm 0.00 in0.0 mm
07:15 PM 81.0°F27.2°C 67.2°F19.6°C 63% Calm Calm -- 29.95 in1014.2 mb 0.00 in0.0 mm 0.00 in0.0 mm 0.00 in0.0 mm
07:30 PM 80.6°F27.0°C 67.3°F19.6°C 64% Calm Calm -- 29.95 in1014.2 mb 0.00 in0.0 mm 0.00 in0.0 mm 0.00 in0.0 mm
07:45 PM 80.4°F26.9°C 67.6°F19.8°C 65% Calm Calm -- 29.95 in1014.2 mb 0.00 in0.0 mm 0.00 in0.0 mm 0.00 in0.0 mm
08:00 PM 80.1°F26.7°C 67.7°F19.8°C 66% Calm Calm -- 29.95 in1014.2 mb 0.00 in0.0 mm 0.00 in0.0 mm 0.00 in0.0 mm
08:15 PM 79.7°F26.5°C 67.8°F19.9°C 67% Calm Calm -- 29.95 in1014.2 mb 0.00 in0.0 mm 0.00 in0.0 mm 0.00 in0.0 mm
08:30 PM 79.0°F26.1°C 67.5°F19.7°C 68% Calm Calm -- 29.95 in1014.2 mb 0.00 in0.0 mm 0.00 in0.0 mm 0.00 in0.0 mm
08:45 PM 78.6°F25.9°C 67.6°F19.8°C 69% Calm Calm -- 29.95 in1014.2 mb 0.00 in0.0 mm 0.00 in0.0 mm 0.00 in0.0 mm
09:00 PM 78.3°F25.7°C 64.2°F17.9°C 62% 4.1 mph NW6.6 kmh NW 5.3 mph8.5 kmh 29.95 in1014.2 mb 0.00 in0.0 mm 0.00 in0.0 mm 0.00 in0.0 mm
09:15 PM 78.8°F26.0°C 60.2°F15.7°C 53% 3.5 mph NW5.6 kmh NW 8.2 mph13.2 kmh 29.95 in1014.2 mb 0.00 in0.0 mm 0.00 in0.0 mm 0.00 in0.0 mm
09:30 PM 79.0°F26.1°C 60.4°F15.8°C 53% 3.5 mph NW5.6 kmh NW 6.4 mph10.3 kmh 29.95 in1014.2 mb 0.00 in0.0 mm 0.00 in0.0 mm 0.00 in0.0 mm
09:45 PM 79.2°F26.2°C 60.0°F15.6°C 52% Calm Calm 8.2 mph13.2 kmh 29.95 in1014.2 mb 0.00 in0.0 mm 0.00 in0.0 mm 0.00 in0.0 mm
10:00 PM 79.2°F26.2°C 60.0°F15.6°C 52% Calm Calm 8.2 mph13.2 kmh 29.95 in1014.2 mb 0.00 in0.0 mm 0.00 in0.0 mm 0.00 in0.0 mm
10:15 PM 79.0°F26.1°C 61.9°F16.6°C 56% 4.1 mph NNW6.6 kmh NNW 10.0 mph16.1 kmh 29.95 in1014.2 mb 0.00 in0.0 mm 0.00 in0.0 mm 0.00 in0.0 mm
10:30 PM 78.4°F25.8°C 60.4°F15.8°C 54% Calm Calm 8.2 mph13.2 kmh 29.95 in1014.2 mb 0.00 in0.0 mm 0.00 in0.0 mm 0.00 in0.0 mm
10:45 PM 76.5°F24.7°C 56.4°F13.6°C 50% Calm Calm 4.1 mph6.6 kmh 29.95 in1014.2 mb 0.00 in0.0 mm 0.00 in0.0 mm 0.00 in0.0 mm
11:00 PM 75.2°F24.0°C 54.7°F12.6°C 49% Calm Calm 2.9 mph4.7 kmh 29.98 in1015.2 mb 0.00 in0.0 mm 0.00 in0.0 mm 0.00 in0.0 mm
11:15 PM 74.1°F23.4°C 54.3°F12.4°C 50% Calm Calm -- 29.98 in1015.2 mb 0.00 in0.0 mm 0.00 in0.0 mm 0.00 in0.0 mm
11:30 PM 73.6°F23.1°C 54.3°F12.4°C 51% Calm Calm -- 29.98 in1015.2 mb 0.00 in0.0 mm 0.00 in0.0 mm 0.00 in0.0 mm
11:45 PM 73.4°F23.0°C 58.2°F14.6°C 59% Calm Calm 7.0 mph11.3 kmh 29.98 in1015.2 mb 0.00 in0.0 mm 0.00 in0.0 mm 0.00 in0.0 mm